Metar z połowy godziny Komunikat METAR ze strony awiacja.imgw.pl Metar G30 EPZG METAR EPZG 162230Z 13004KT 100V170 8000 BKN026 M02/M04 Q1017 =